Olib — 9AA6266 — position and weather

sailwx.info

Track history (hours):
 
Tides and Currents Weather Stations Pressure Air Temp Water Temp Dewpoint Dewpoint Depression Visibility Wind Speed Wind Dir Waves Ship Positions

Olib

Last reported at 2014-Oct-31 08:32 UTC. Time now 2014-Nov-01 02:38 UTC.
Position N 49°43' W 003°40'.

Length 247 m; draft 14.7 m.

Type: Tanker. MMSI: 238252000.

Date/timePositionNaut miles runAvg speedWind from/ knotsBaromVisibWave heightAir tempDewpointWater temp
2014-Oct-31 08:32N 49°43' W 003°40'1111.4
2014-Oct-31 07:33N 49°49' W 003°25'1212.1
2014-Oct-31 06:33N 49°55' W 003°09'1312.5
2014-Oct-31 05:33N 49°60' W 002°51'1212.4
2014-Oct-31 04:33N 50°03' W 002°32'1111.4
2014-Oct-31 03:33N 50°07' W 002°16'1010.1
2014-Oct-31 02:33N 50°10' W 002°00'9 9.1
2014-Oct-31 01:33N 50°12' W 001°47'9 8.6
2014-Oct-31 00:33N 50°14' W 001°34'29 9.6
2014-Oct-30 21:33N 50°22' W 000°50'1211.9
2014-Oct-30 20:33N 50°25' W 000°32'1212.3
2014-Oct-30 19:33N 50°28' W 000°14'1312.3
2014-Oct-30 18:32N 50°31' E 000°05'1212.1
2014-Oct-30 17:33N 50°34' E 000°23'1111.2
2014-Oct-30 16:33N 50°38' E 000°40'1010.2
2014-Oct-30 15:33N 50°44' E 000°53'9 9.5
2014-Oct-30 14:33N 50°50' E 001°06'10 9.6
2014-Oct-30 13:32N 50°55' E 001°18'1110.8
2014-Oct-30 12:33N 51°03' E 001°30'1212.4
2014-Oct-30 11:33N 51°12' E 001°44'1212.1
2014-Oct-30 10:34N 51°22' E 001°53'1111.4
2014-Oct-30 09:33N 51°32' E 002°04'1110.7
2014-Oct-30 08:33N 51°40' E 002°15'27410.1
2014-Oct-29 05:32N 55°38' E 006°04'1010.1
2014-Oct-29 04:32N 55°47' E 006°11'184 7.6
2014-Oct-28 04:29N 57°52' E 010°18'8 8.4
2014-Oct-28 03:33N 57°53' E 010°32'9 8.7
2014-Oct-28 02:32N 57°48' E 010°46'6 6.5
2014-Oct-28 01:33N 57°41' E 010°47'10 9.6
2014-Oct-28 00:33N 57°35' E 010°59'1010.0
2014-Oct-27 23:33N 57°31' E 011°16'9 9.3
2014-Oct-27 22:33N 57°24' E 011°29'1010.1
2014-Oct-27 21:34N 57°15' E 011°35'1010.1
2014-Oct-27 20:33N 57°05' E 011°40'10 9.8
2014-Oct-27 19:33N 56°56' E 011°47'10 9.5
2014-Oct-27 18:33N 56°47' E 011°53'10 9.8
2014-Oct-27 17:33N 56°38' E 011°45'118 8.4
2014-Oct-27 03:33N 54°45' E 010°48'31 7.7
2014-Oct-26 23:28N 54°29' E 011°35'8 9.1
2014-Oct-26 22:34N 54°27' E 011°48'9 8.7
2014-Oct-26 21:33N 54°27' E 012°03'7 7.4
2014-Oct-26 20:33N 54°31' E 012°14'17 8.1
2014-Oct-26 18:26N 54°43' E 012°35'31 7.5
2014-Oct-26 14:19N 54°56' E 013°24'7 9.4
2014-Oct-26 13:33N 54°58' E 013°36'9 9.4
2014-Oct-26 12:33N 55°01' E 013°51'9 9.5
2014-Oct-26 11:34N 55°05' E 014°06'10 9.5
2014-Oct-26 10:33N 55°13' E 014°16'10 9.7
2014-Oct-26 09:33N 55°21' E 014°27'10 9.6
2014-Oct-26 08:33N 55°28' E 014°38'10 9.8
2014-Oct-26 07:34N 55°32' E 014°54'10 9.7
2014-Oct-26 06:33N 55°37' E 015°09'11 9.8
2014-Oct-26 05:25N 55°40' E 015°28'139 9.2
2014-Oct-25 14:21N 56°38' E 019°13'  
Track history (hours):
 
Tides and Currents Weather Stations Pressure Air Temp Water Temp Dewpoint Dewpoint Depression Visibility Wind Speed Wind Dir Waves Ship Positions

Olib

Last reported at 2014-Oct-31 08:32 UTC. Time now 2014-Nov-01 02:38 UTC.
Position N 49°43' W 003°40'.

Length 247 m; draft 14.7 m.

Type: Tanker. MMSI: 238252000.

Date/timePositionNaut miles runAvg speedWind from/ knotsBaromVisibWave heightAir tempDewpointWater temp
2014-Oct-31 08:32N 49°43' W 003°40'1111.4
2014-Oct-31 07:33N 49°49' W 003°25'1212.1
2014-Oct-31 06:33N 49°55' W 003°09'1312.5
2014-Oct-31 05:33N 49°60' W 002°51'1212.4
2014-Oct-31 04:33N 50°03' W 002°32'1111.4
2014-Oct-31 03:33N 50°07' W 002°16'1010.1
2014-Oct-31 02:33N 50°10' W 002°00'9 9.1
2014-Oct-31 01:33N 50°12' W 001°47'9 8.6
2014-Oct-31 00:33N 50°14' W 001°34'29 9.6
2014-Oct-30 21:33N 50°22' W 000°50'1211.9
2014-Oct-30 20:33N 50°25' W 000°32'1212.3
2014-Oct-30 19:33N 50°28' W 000°14'1312.3
2014-Oct-30 18:32N 50°31' E 000°05'1212.1
2014-Oct-30 17:33N 50°34' E 000°23'1111.2
2014-Oct-30 16:33N 50°38' E 000°40'1010.2
2014-Oct-30 15:33N 50°44' E 000°53'9 9.5
2014-Oct-30 14:33N 50°50' E 001°06'10 9.6
2014-Oct-30 13:32N 50°55' E 001°18'1110.8
2014-Oct-30 12:33N 51°03' E 001°30'1212.4
2014-Oct-30 11:33N 51°12' E 001°44'1212.1
2014-Oct-30 10:34N 51°22' E 001°53'1111.4
2014-Oct-30 09:33N 51°32' E 002°04'1110.7
2014-Oct-30 08:33N 51°40' E 002°15'27410.1
2014-Oct-29 05:32N 55°38' E 006°04'1010.1
2014-Oct-29 04:32N 55°47' E 006°11'184 7.6
2014-Oct-28 04:29N 57°52' E 010°18'8 8.4
2014-Oct-28 03:33N 57°53' E 010°32'9 8.7
2014-Oct-28 02:32N 57°48' E 010°46'6 6.5
2014-Oct-28 01:33N 57°41' E 010°47'10 9.6
2014-Oct-28 00:33N 57°35' E 010°59'1010.0
2014-Oct-27 23:33N 57°31' E 011°16'9 9.3
2014-Oct-27 22:33N 57°24' E 011°29'1010.1
2014-Oct-27 21:34N 57°15' E 011°35'1010.1
2014-Oct-27 20:33N 57°05' E 011°40'10 9.8
2014-Oct-27 19:33N 56°56' E 011°47'10 9.5
2014-Oct-27 18:33N 56°47' E 011°53'10 9.8
2014-Oct-27 17:33N 56°38' E 011°45'118 8.4
2014-Oct-27 03:33N 54°45' E 010°48'31 7.7
2014-Oct-26 23:28N 54°29' E 011°35'8 9.1
2014-Oct-26 22:34N 54°27' E 011°48'9 8.7
2014-Oct-26 21:33N 54°27' E 012°03'7 7.4
2014-Oct-26 20:33N 54°31' E 012°14'17 8.1
2014-Oct-26 18:26N 54°43' E 012°35'31 7.5
2014-Oct-26 14:19N 54°56' E 013°24'7 9.4
2014-Oct-26 13:33N 54°58' E 013°36'9 9.4
2014-Oct-26 12:33N 55°01' E 013°51'9 9.5
2014-Oct-26 11:34N 55°05' E 014°06'10 9.5
2014-Oct-26 10:33N 55°13' E 014°16'10 9.7
2014-Oct-26 09:33N 55°21' E 014°27'10 9.6
2014-Oct-26 08:33N 55°28' E 014°38'10 9.8
2014-Oct-26 07:34N 55°32' E 014°54'10 9.7
2014-Oct-26 06:33N 55°37' E 015°09'11 9.8
2014-Oct-26 05:25N 55°40' E 015°28'139 9.2
2014-Oct-25 14:21N 56°38' E 019°13'  

Dump ship's entire track history